Historyczne dane pomiarowe

Dodano dane terminowe – wersja testowa.

Dane z okresu 1951-2019

Wersja bazy: 1.34 [2019-03-16, lista zmian], aktualizacja planowana na 2019-04-15

Dane meteo z obszaru Polski uzyskane na podstawie danych udostępnionych przez Instytut Meteorologii i Gospodarki Wodnej – Państwowy Instytut Badawczy.

 

Wybierz Datę:    

       

TemperaturaWilgotnośćWiatrCiśnienieOpadyŚniegCzas trwania zjawisk
 Stacja t tx tn tng RH VA  wxwx mslp ppp RRR   cm mm wxwxwxwxwxwxwx
1987-08-14 11.9 21.2 6.6 4.8 78.5- 0.0 1.0---- 0.8------------
1987-08-13 14.2 17.5 5.5 2.6 76.8- 0.0 2.7---- 0.0------------
1987-08-12 13.6 18.0 8.3 6.9 71.0- 3.3 6.7---- 0.0------------
1987-08-11 13.9 16.8 9.6 8.4 88.8- 8.0 5.3---- 3.3------------
1987-08-10 15.9 18.9 9.7 7.1 94.8- 7.3 4.7---- 6.5------------
1987-08-09 15.4 24.6 9.5 8.4 86.0- 1.3 3.7---- 0.0------------
1987-08-08 14.9 20.3 7.5 6.6 76.3- 0.7 2.0---- 0.0------------
1987-08-07 12.3 18.6 6.0 3.8 77.3- 4.0 3.7---- 0.3------------
1987-08-06 11.3 16.3 8.2 6.5 88.8- 7.3 4.3---- 2.6------------
1987-08-05 12.9 18.2 8.1 6.1 83.0- 6.7 1.7---- 3.5------------
1987-08-04 15.2 20.2 10.7 7.2 86.5- 4.0 1.7---- 1.6------------
1987-08-03 15.3 19.8 10.0 6.9 85.0- 2.0 4.7---- 0.0------------
1987-08-02 15.0 17.5 11.2 7.4 95.3- 5.3 4.0---- 7.5------------
1987-08-01 16.3 22.8 8.8 7.6 81.0- 0.0 2.7---- 0.3------------
1987-07-31 16.6 22.2 13.3 12.0 89.0- 8.0 4.0---- 0.0------------
1987-07-30 19.0 24.8 12.5 10.1 72.0- 0.7 3.0---- 0.5------------
1987-07-29 15.4 19.5 10.6 9.3 73.5- 0.7 4.3---- 0.3------------
1987-07-28 15.5 19.2 12.7 10.5 89.0- 8.0 3.7---- 0.7------------
1987-07-27 13.1 18.3 8.6 6.8 63.8- 6.0 5.3---- 2.2------------
1987-07-26 14.8 18.3 12.8 10.1 97.0- 8.0 1.7---- 7.7------------
1987-07-25 19.7 25.0 14.5 12.3 87.3- 0.0 3.0---- 0.5------------
1987-07-24 21.9 27.5 17.4 15.4 75.8- 4.7 3.0---- 0.0------------
1987-07-23 21.1 27.8 13.6 10.3 76.0- 1.3 2.0---- 1.3------------
1987-07-22 20.7 24.6 11.9 10.8 77.5- 2.0 4.3---- 0.0------------
1987-07-21 21.2 26.0 13.0 11.2 80.0- 2.0 2.3---- 0.0------------
1987-07-20 22.0 25.3 18.1 17.6 82.0- 2.0 5.3---- 0.0------------
1987-07-19 24.2 30.0 19.3 18.1 84.8- 2.0 3.0---- 1.0------------
1987-07-18 24.4 30.7 16.0 15.0 78.0- 0.0 2.3---- 0.0------------
1987-07-17 21.7 29.3 15.0 12.7 81.3- 7.3 1.7---- 1.0------------
1987-07-16 20.7 27.5 10.5 10.1 70.5- 0.0 1.7---- 2.5------------
1987-07-15 18.7 23.5 7.3 6.6 74.5- 0.0 2.3---- 0.0------------
1987-07-14 17.4 21.3 11.0 6.9 73.8- 0.0 3.7---- 0.0------------
1987-07-13 20.7 24.2 14.5 10.1 73.0- 1.3 4.7---- 0.0------------
1987-07-12 20.1 29.0 11.2 7.4 68.5- 0.0 3.3---- 0.0------------
1987-07-11 17.0 22.5 8.6 5.3 70.5- 0.0 4.3---- 0.0------------
1987-07-10 15.4 19.2 10.5 9.5 74.8- 0.7 3.7---- 0.0------------
1987-07-09 17.2 24.5 13.2 11.5 97.5- 7.3 1.7---- 3.0------------
1987-07-08 20.6 28.7 10.9 7.9 69.3- 0.0 2.7---- 0.0------------
1987-07-07 20.5 25.3 8.6 5.3 66.3- 0.0 2.3---- 0.0------------
1987-07-06 18.4 23.2 11.0 7.7 72.8- 0.0 1.7---- 0.0------------
1987-07-05 17.7 22.2 13.9 13.2 70.0- 3.7 4.3---- 0.0------------
1987-07-04 20.7 23.5 16.0 15.5 67.8- 0.0 3.7---- 1.9------------
1987-07-03 19.8 23.7 16.1 15.6 75.8- 6.0 2.3---- 0.0------------
1987-07-02 20.3 27.0 18.9 16.3 87.0- 8.0 0.3---- 1.4------------
1987-07-01 25.0 30.9 17.3 14.6 79.0- 0.0 0.3---- 0.0------------
1987-06-30 23.1 29.8 16.2 13.9 77.0- 0.0 0.3---- 0.0------------
1987-06-29 22.9 25.3 7.9 7.6 87.8- 0.0 1.7---- 0.0------------
1987-06-28 20.4 24.2 8.8 7.4 82.8- 0.0 3.0---- 0.0------------
1987-06-27 19.1 21.7 14.2 12.2 85.8- 3.3 1.7---- 0.0------------
1987-06-26 16.3 21.7 8.2 7.8 75.8- 0.0 1.0---- 0.0------------
1987-06-25 17.7 21.3 13.2 10.5 78.5- 0.7 2.0---- 0.0------------
1987-06-24 18.2 21.5 13.0 11.3 81.3- 1.3 1.3---- 0.0------------
1987-06-23 17.0 20.2 11.6 10.8 81.3- 6.0 4.0---- 0.0------------
1987-06-22 19.3 23.5 12.1 11.8 82.0- 5.3 3.7---- 21.5------------
1987-06-21 17.0 24.2 10.6 9.5 76.0- 0.0 4.3---- 0.0------------
1987-06-20 16.2 22.7 6.3 5.9 62.0- 0.0 3.7---- 0.0------------
1987-06-19 13.0 17.7 5.6 4.5 70.5- 2.0 4.3---- 0.0------------
1987-06-18 12.5 19.5 5.9 5.2 87.5- 5.3 4.3---- 2.8------------
1987-06-17 12.9 18.8 10.1 9.4 79.8- 6.0 3.7---- 0.2------------
1987-06-16 14.8 25.0 12.2 11.5 88.3- 8.0 3.0---- 1.2------------
501.0 ms

 

Źródłem pochodzenia danych jest Instytut Meteorologii i Gospodarki Wodnej – Państwowy Instytut Badawczy. Dane Instytutu Meteorologii i Gospodarki Wodnej – Państwowego Instytutu Badawczego zostały przetworzone.

Dane źródłowe można odnaleźć na stronie https://dane.imgw.pl